sensor_id;sensor_type;location;lat;lon;timestamp;P1;durP1;ratioP1;P2;durP2;ratioP2
50086;SDS011;35967;50.718;7.050;2024-03-23T01:00:17;31.50;;;13.57;;
50086;SDS011;35967;50.718;7.050;2024-03-23T01:10:19;36.93;;;15.20;;
50086;SDS011;35967;50.718;7.050;2024-03-23T01:20:23;28.07;;;12.93;;
50086;SDS011;35967;50.718;7.050;2024-03-23T01:30:25;28.53;;;11.30;;
50086;SDS011;35967;50.718;7.050;2024-03-23T01:40:28;24.17;;;11.27;;
50086;SDS011;35967;50.718;7.050;2024-03-23T01:50:32;28.13;;;12.43;;
50086;SDS011;35967;50.718;7.050;2024-03-23T02:00:36;25.20;;;11.80;;
50086;SDS011;35967;50.718;7.050;2024-03-23T02:10:38;23.33;;;12.00;;
50086;SDS011;35967;50.718;7.050;2024-03-23T02:20:42;14.57;;;5.27;;
50086;SDS011;35967;50.718;7.050;2024-03-23T02:30:46;11.10;;;3.13;;
50086;SDS011;35967;50.718;7.050;2024-03-23T02:40:48;9.53;;;4.87;;
50086;SDS011;35967;50.718;7.050;2024-03-23T02:50:52;13.23;;;4.97;;
50086;SDS011;35967;50.718;7.050;2024-03-23T03:00:55;9.90;;;5.37;;
50086;SDS011;35967;50.718;7.050;2024-03-23T03:10:58;5.93;;;1.47;;
50086;SDS011;35967;50.718;7.050;2024-03-23T03:21:00;6.87;;;1.00;;
50086;SDS011;35967;50.718;7.050;2024-03-23T03:31:04;10.87;;;1.00;;
50086;SDS011;35967;50.718;7.050;2024-03-23T03:41:06;11.47;;;1.40;;
50086;SDS011;35967;50.718;7.050;2024-03-23T03:51:10;7.57;;;1.00;;
50086;SDS011;35967;50.718;7.050;2024-03-23T04:01:12;13.57;;;2.43;;
50086;SDS011;35967;50.718;7.050;2024-03-23T04:11:16;11.40;;;1.27;;
50086;SDS011;35967;50.718;7.050;2024-03-23T04:21:18;6.23;;;1.20;;
50086;SDS011;35967;50.718;7.050;2024-03-23T04:31:22;8.23;;;1.60;;
50086;SDS011;35967;50.718;7.050;2024-03-23T04:41:24;14.47;;;1.60;;
50086;SDS011;35967;50.718;7.050;2024-03-23T04:51:27;12.70;;;1.60;;
50086;SDS011;35967;50.718;7.050;2024-03-23T05:01:37;9.27;;;1.57;;
50086;SDS011;35967;50.718;7.050;2024-03-23T05:11:44;11.30;;;1.40;;
50086;SDS011;35967;50.718;7.050;2024-03-23T05:21:46;10.60;;;1.33;;
50086;SDS011;35967;50.718;7.050;2024-03-23T05:31:51;13.50;;;1.47;;
50086;SDS011;35967;50.718;7.050;2024-03-23T05:41:53;10.17;;;1.00;;
50086;SDS011;35967;50.718;7.050;2024-03-23T05:51:57;11.90;;;1.20;;
50086;SDS011;35967;50.718;7.050;2024-03-23T06:01:59;10.87;;;1.00;;
50086;SDS011;35967;50.718;7.050;2024-03-23T06:12:04;11.73;;;1.27;;
50086;SDS011;35967;50.718;7.050;2024-03-23T06:22:06;6.67;;;1.17;;
50086;SDS011;35967;50.718;7.050;2024-03-23T06:32:10;17.53;;;1.37;;
50086;SDS011;35967;50.718;7.050;2024-03-23T06:42:12;11.03;;;1.50;;
50086;SDS011;35967;50.718;7.050;2024-03-23T06:52:15;13.37;;;1.33;;
50086;SDS011;35967;50.718;7.050;2024-03-23T07:02:18;13.23;;;1.73;;
50086;SDS011;35967;50.718;7.050;2024-03-23T07:12:21;17.17;;;2.80;;
50086;SDS011;35967;50.718;7.050;2024-03-23T07:22:23;11.23;;;1.80;;
50086;SDS011;35967;50.718;7.050;2024-03-23T07:32:27;17.03;;;2.40;;
50086;SDS011;35967;50.718;7.050;2024-03-23T07:42:29;15.67;;;2.57;;
50086;SDS011;35967;50.718;7.050;2024-03-23T07:52:33;17.60;;;3.50;;
50086;SDS011;35967;50.718;7.050;2024-03-23T08:02:36;19.13;;;2.80;;
50086;SDS011;35967;50.718;7.050;2024-03-23T08:12:39;6.27;;;1.13;;
50086;SDS011;35967;50.718;7.050;2024-03-23T08:22:42;4.67;;;0.80;;
50086;SDS011;35967;50.718;7.050;2024-03-23T08:32:45;4.53;;;0.50;;
50086;SDS011;35967;50.718;7.050;2024-03-23T08:42:47;6.47;;;1.00;;
50086;SDS011;35967;50.718;7.050;2024-03-23T08:52:51;5.63;;;1.53;;
50086;SDS011;35967;50.718;7.050;2024-03-23T09:02:54;10.53;;;3.40;;
50086;SDS011;35967;50.718;7.050;2024-03-23T09:12:59;17.50;;;4.13;;
50086;SDS011;35967;50.718;7.050;2024-03-23T09:23:01;14.53;;;3.63;;
50086;SDS011;35967;50.718;7.050;2024-03-23T09:33:04;13.40;;;1.80;;
50086;SDS011;35967;50.718;7.050;2024-03-23T09:43:06;13.53;;;1.83;;
50086;SDS011;35967;50.718;7.050;2024-03-23T09:53:11;9.27;;;1.30;;
50086;SDS011;35967;50.718;7.050;2024-03-23T10:03:15;8.53;;;1.40;;
50086;SDS011;35967;50.718;7.050;2024-03-23T10:13:24;11.57;;;1.50;;
50086;SDS011;35967;50.718;7.050;2024-03-23T10:23:28;15.73;;;1.30;;
50086;SDS011;35967;50.718;7.050;2024-03-23T10:33:32;3.60;;;0.90;;
50086;SDS011;35967;50.718;7.050;2024-03-23T10:43:36;2.17;;;0.50;;
50086;SDS011;35967;50.718;7.050;2024-03-23T10:53:40;2.63;;;0.10;;
50086;SDS011;35967;50.718;7.050;2024-03-23T11:03:44;3.80;;;0.40;;
50086;SDS011;35967;50.718;7.050;2024-03-23T11:13:49;1.90;;;0.40;;
50086;SDS011;35967;50.718;7.050;2024-03-23T11:23:53;5.00;;;1.00;;
50086;SDS011;35967;50.718;7.050;2024-03-23T11:34:03;6.90;;;0.90;;
50086;SDS011;35967;50.718;7.050;2024-03-23T11:44:13;5.00;;;0.80;;
50086;SDS011;35967;50.718;7.050;2024-03-23T11:54:21;8.73;;;2.10;;
50086;SDS011;35967;50.718;7.050;2024-03-23T12:04:25;8.60;;;1.20;;
50086;SDS011;35967;50.718;7.050;2024-03-23T12:14:29;4.87;;;1.13;;
50086;SDS011;35967;50.718;7.050;2024-03-23T12:24:32;8.60;;;1.80;;
50086;SDS011;35967;50.718;7.050;2024-03-23T12:34:37;8.13;;;1.63;;
50086;SDS011;35967;50.718;7.050;2024-03-23T12:44:39;8.23;;;1.27;;
50086;SDS011;35967;50.718;7.050;2024-03-23T12:54:43;3.23;;;0.50;;
50086;SDS011;35967;50.718;7.050;2024-03-23T13:04:46;2.53;;;0.37;;
50086;SDS011;35967;50.718;7.050;2024-03-23T13:14:53;5.23;;;0.60;;
50086;SDS011;35967;50.718;7.050;2024-03-23T13:24:55;1.27;;;0.30;;
50086;SDS011;35967;50.718;7.050;2024-03-23T13:35:00;1.63;;;0.47;;
50086;SDS011;35967;50.718;7.050;2024-03-23T13:45:02;3.50;;;0.60;;
50086;SDS011;35967;50.718;7.050;2024-03-23T13:55:07;3.43;;;0.50;;
50086;SDS011;35967;50.718;7.050;2024-03-23T14:05:10;5.80;;;1.10;;
50086;SDS011;35967;50.718;7.050;2024-03-23T14:15:13;5.37;;;0.60;;
50086;SDS011;35967;50.718;7.050;2024-03-23T14:25:16;4.43;;;0.80;;
50086;SDS011;35967;50.718;7.050;2024-03-23T14:35:20;2.63;;;0.70;;
50086;SDS011;35967;50.718;7.050;2024-03-23T14:45:22;7.43;;;1.00;;
50086;SDS011;35967;50.718;7.050;2024-03-23T14:55:26;1.77;;;0.60;;
50086;SDS011;35967;50.718;7.050;2024-03-23T15:05:29;3.40;;;0.60;;
50086;SDS011;35967;50.718;7.050;2024-03-23T15:15:33;1.83;;;0.40;;
50086;SDS011;35967;50.718;7.050;2024-03-23T15:25:41;1.83;;;0.23;;
50086;SDS011;35967;50.718;7.050;2024-03-23T15:35:45;1.23;;;0.20;;
50086;SDS011;35967;50.718;7.050;2024-03-23T15:45:53;1.60;;;0.20;;
50086;SDS011;35967;50.718;7.050;2024-03-23T15:55:57;4.23;;;1.00;;
50086;SDS011;35967;50.718;7.050;2024-03-23T16:06:00;3.20;;;0.40;;
50086;SDS011;35967;50.718;7.050;2024-03-23T16:16:06;4.23;;;0.50;;
50086;SDS011;35967;50.718;7.050;2024-03-23T16:26:08;1.80;;;0.33;;
50086;SDS011;35967;50.718;7.050;2024-03-23T16:36:33;5.57;;;0.60;;
50086;SDS011;35967;50.718;7.050;2024-03-23T16:46:55;2.03;;;0.43;;
50086;SDS011;35967;50.718;7.050;2024-03-23T16:57:19;2.57;;;0.53;;
50086;SDS011;35967;50.718;7.050;2024-03-23T17:07:21;1.87;;;0.50;;
50086;SDS011;35967;50.718;7.050;2024-03-23T17:17:45;3.23;;;0.90;;
50086;SDS011;35967;50.718;7.050;2024-03-23T17:28:08;5.77;;;2.53;;
50086;SDS011;35967;50.718;7.050;2024-03-23T17:38:34;3.07;;;0.63;;
50086;SDS011;35967;50.718;7.050;2024-03-23T17:48:57;3.13;;;0.80;;
50086;SDS011;35967;50.718;7.050;2024-03-23T17:59:21;5.57;;;1.47;;
50086;SDS011;35967;50.718;7.050;2024-03-23T18:09:45;3.17;;;0.87;;
50086;SDS011;35967;50.718;7.050;2024-03-23T18:20:09;16.47;;;6.13;;
50086;SDS011;35967;50.718;7.050;2024-03-23T18:30:32;5.30;;;1.20;;
50086;SDS011;35967;50.718;7.050;2024-03-23T18:40:55;4.87;;;1.40;;
50086;SDS011;35967;50.718;7.050;2024-03-23T18:51:18;3.80;;;1.00;;
50086;SDS011;35967;50.718;7.050;2024-03-23T19:01:42;2.90;;;0.60;;
50086;SDS011;35967;50.718;7.050;2024-03-23T19:12:06;1.57;;;0.40;;
50086;SDS011;35967;50.718;7.050;2024-03-23T19:22:30;3.30;;;0.40;;
50086;SDS011;35967;50.718;7.050;2024-03-23T19:32:52;3.37;;;0.60;;
50086;SDS011;35967;50.718;7.050;2024-03-23T19:43:17;3.67;;;0.77;;
50086;SDS011;35967;50.718;7.050;2024-03-23T19:53:40;4.63;;;0.90;;
50086;SDS011;35967;50.718;7.050;2024-03-23T20:04:04;2.60;;;0.60;;
50086;SDS011;35967;50.718;7.050;2024-03-23T20:14:26;3.73;;;0.80;;
50086;SDS011;35967;50.718;7.050;2024-03-23T20:24:51;5.33;;;0.90;;
50086;SDS011;35967;50.718;7.050;2024-03-23T20:35:14;5.53;;;1.00;;
50086;SDS011;35967;50.718;7.050;2024-03-23T20:45:38;4.67;;;0.90;;
50086;SDS011;35967;50.718;7.050;2024-03-23T20:56:02;5.13;;;0.70;;
50086;SDS011;35967;50.718;7.050;2024-03-23T21:06:26;5.87;;;1.17;;
50086;SDS011;35967;50.718;7.050;2024-03-23T21:16:49;5.40;;;0.70;;
50086;SDS011;35967;50.718;7.050;2024-03-23T21:27:16;3.50;;;0.60;;
50086;SDS011;35967;50.718;7.050;2024-03-23T21:37:39;2.97;;;0.50;;
50086;SDS011;35967;50.718;7.050;2024-03-23T21:48:03;2.87;;;0.50;;
50086;SDS011;35967;50.718;7.050;2024-03-23T21:58:26;4.17;;;0.90;;
50086;SDS011;35967;50.718;7.050;2024-03-23T22:08:52;5.83;;;0.70;;
50086;SDS011;35967;50.718;7.050;2024-03-23T22:19:15;7.60;;;0.80;;
50086;SDS011;35967;50.718;7.050;2024-03-23T22:29:39;1.87;;;0.67;;
50086;SDS011;35967;50.718;7.050;2024-03-23T22:40:01;6.87;;;0.70;;
50086;SDS011;35967;50.718;7.050;2024-03-23T22:50:25;5.43;;;1.00;;
50086;SDS011;35967;50.718;7.050;2024-03-23T23:00:50;6.73;;;1.00;;
50086;SDS011;35967;50.718;7.050;2024-03-23T23:11:16;6.20;;;1.27;;
50086;SDS011;35967;50.718;7.050;2024-03-23T23:21:39;9.67;;;1.13;;
50086;SDS011;35967;50.718;7.050;2024-03-23T23:32:03;4.70;;;0.70;;
50086;SDS011;35967;50.718;7.050;2024-03-23T23:42:26;4.53;;;0.77;;
50086;SDS011;35967;50.718;7.050;2024-03-23T23:52:50;6.43;;;1.37;;
